Time;durP1;ratioP1;P1;durP2;ratioP2;P2;SDS_P1;SDS_P2;PMS_P1;PMS_P2;Temp;Humidity;BMP_temperature;BMP_pressure;BME280_temperature;BME280_humidity;BME280_pressure;Samples;Min_cycle;Max_cycle;Signal;HPM_P1;HPM_P2
2022/11/25 00:01:28;;;;;;;;;;;8.60;80.50;;;;;;5032566;28;19928;-85
2022/11/25 00:03:55;;;;;;;;;;;8.60;80.80;;;;;;5028870;28;19950;-84
2022/11/25 00:06:21;;;;;;;;;;;8.70;80.90;;;;;;5026614;28;19924;-81
2022/11/25 00:08:54;;;;;;;;;;;8.90;80.10;;;;;;5035068;28;19935;-83
2022/11/25 00:11:20;;;;;;;;;;;9.00;80.10;;;;;;5027738;28;19979;-82
2022/11/25 00:13:46;;;;;;;;;;;8.90;80.30;;;;;;5031292;28;19924;-84
2022/11/25 00:16:13;;;;;;;;;;;9.00;80.10;;;;;;5028429;28;19947;-83
2022/11/25 00:18:39;;;;;;;;;;;9.00;79.80;;;;;;5019388;28;19975;-81
2022/11/25 00:21:08;;;;;;;;;;;9.00;80.10;;;;;;5030044;28;20394;-83
2022/11/25 00:23:34;;;;;;;;;;;9.00;80.20;;;;;;5056650;28;20333;-83
2022/11/25 00:26:06;;;;;;;;;;;9.00;80.30;;;;;;5060907;28;19918;-83
2022/11/25 00:28:31;;;;;;;;;;;9.10;80.10;;;;;;5041539;28;20399;-82
2022/11/25 00:31:03;;;;;;;;;;;9.00;80.10;;;;;;5026188;28;20008;-85
2022/11/25 00:33:28;;;;;;;;;;;9.00;80.40;;;;;;5041697;28;19917;-85
2022/11/25 00:35:54;;;;;;;;;;;9.10;80.30;;;;;;5041997;28;19921;-83
2022/11/25 00:38:19;;;;;;;;;;;9.10;79.90;;;;;;5028898;28;19921;-82
2022/11/25 00:44:34;;;;;;;;;;;9.10;80.20;;;;;;5059022;28;19920;-82
2022/11/25 00:46:14;;;;;;;;;;;9.10;80.30;;;;;;5025647;28;20316;-82
2022/11/25 00:48:39;;;;;;;;;;;9.10;80.40;;;;;;5022195;28;19917;-82
2022/11/25 00:51:05;;;;;;;;;;;9.10;80.30;;;;;;5029538;28;19948;-84
2022/11/25 00:53:30;;;;;;;;;;;9.10;80.70;;;;;;5021867;28;19913;-82
2022/11/25 00:56:11;;;;;;;;;;;9.10;80.50;;;;;;5029949;28;20270;-82
2022/11/25 00:58:37;;;;;;;;;;;9.10;80.60;;;;;;5024909;28;20423;-83
2022/11/25 01:01:03;;;;;;;;;;;9.20;80.40;;;;;;5029574;28;19917;-83
2022/11/25 01:03:28;;;;;;;;;;;9.20;80.10;;;;;;5018936;28;19918;-83
2022/11/25 01:05:54;;;;;;;;;;;9.20;80.30;;;;;;5025741;28;19913;-83
2022/11/25 01:08:20;;;;;;;;;;;9.20;80.20;;;;;;5019709;28;19913;-83
2022/11/25 01:10:45;;;;;;;;;;;9.30;80.30;;;;;;5025090;28;19921;-82
2022/11/25 01:13:10;;;;;;;;;;;9.20;80.30;;;;;;5023862;28;20062;-82
2022/11/25 01:15:36;;;;;;;;;;;9.30;80.00;;;;;;5029415;28;20384;-83
2022/11/25 01:18:01;;;;;;;;;;;9.30;79.90;;;;;;5023962;28;19921;-82
2022/11/25 01:20:33;;;;;;;;;;;9.20;80.00;;;;;;5027306;28;19924;-83
2022/11/25 01:22:58;;;;;;;;;;;9.30;80.10;;;;;;5028429;28;19948;-83
2022/11/25 01:25:24;;;;;;;;;;;9.30;79.90;;;;;;5029425;28;22212;-83
2022/11/25 01:27:49;;;;;;;;;;;9.30;79.90;;;;;;5030582;28;20010;-83
2022/11/25 01:30:15;;;;;;;;;;;9.40;80.00;;;;;;5046093;28;19917;-81
2022/11/25 01:32:40;;;;;;;;;;;9.40;80.00;;;;;;5032420;28;19945;-83
2022/11/25 01:35:06;;;;;;;;;;;9.30;80.30;;;;;;5046597;28;19913;-83
2022/11/25 01:37:31;;;;;;;;;;;9.30;80.10;;;;;;5030085;28;19921;-83
2022/11/25 01:39:57;;;;;;;;;;;9.40;80.20;;;;;;5022488;28;20001;-83
2022/11/25 01:42:25;;;;;;;;;;;9.40;80.00;;;;;;5023515;28;19913;-83
2022/11/25 01:45:26;;;;;;;;;;;9.50;80.00;;;;;;5052005;28;19963;-83
2022/11/25 01:47:55;;;;;;;;;;;9.30;80.10;;;;;;5024220;28;20010;-83
2022/11/25 01:50:22;;;;;;;;;;;9.40;80.20;;;;;;5025981;28;19924;-83
2022/11/25 01:52:49;;;;;;;;;;;9.30;80.20;;;;;;5025363;28;19937;-83
2022/11/25 01:55:19;;;;;;;;;;;9.20;80.50;;;;;;5060057;28;19913;-83
2022/11/25 01:57:46;;;;;;;;;;;9.20;80.80;;;;;;5028218;28;19963;-83
2022/11/25 02:00:12;;;;;;;;;;;9.20;80.70;;;;;;5027346;28;20882;-83
2022/11/25 02:02:38;;;;;;;;;;;9.30;80.70;;;;;;5025186;28;20385;-83
2022/11/25 02:05:06;;;;;;;;;;;9.30;80.70;;;;;;5032206;28;19967;-83
2022/11/25 02:07:42;;;;;;;;;;;9.20;80.50;;;;;;5025386;28;19917;-83
2022/11/25 02:10:30;;;;;;;;;;;9.10;80.90;;;;;;5027050;28;19945;-83
2022/11/25 02:12:56;;;;;;;;;;;9.10;81.30;;;;;;5057524;28;19935;-83
2022/11/25 02:15:22;;;;;;;;;;;9.10;80.90;;;;;;5029781;28;22072;-83
2022/11/25 02:17:48;;;;;;;;;;;9.10;81.00;;;;;;5028475;28;19917;-82
2022/11/25 02:20:14;;;;;;;;;;;9.00;81.20;;;;;;5026063;28;19924;-82
2022/11/25 02:22:45;;;;;;;;;;;8.90;81.50;;;;;;5026357;28;19913;-83
2022/11/25 02:25:11;;;;;;;;;;;8.90;82.00;;;;;;5028871;28;19917;-82
2022/11/25 02:27:36;;;;;;;;;;;9.00;81.70;;;;;;5021072;28;19921;-83
2022/11/25 02:30:02;;;;;;;;;;;9.00;81.80;;;;;;5027752;28;19920;-81
2022/11/25 02:32:27;;;;;;;;;;;9.10;81.30;;;;;;5031483;28;19917;-83
2022/11/25 02:34:53;;;;;;;;;;;9.10;81.40;;;;;;5029742;28;19920;-83
2022/11/25 02:37:20;;;;;;;;;;;9.20;81.10;;;;;;5031171;28;19921;-82
2022/11/25 02:39:46;;;;;;;;;;;9.20;81.00;;;;;;5024915;28;19913;-83
2022/11/25 02:42:12;;;;;;;;;;;9.20;81.20;;;;;;5024665;28;20015;-83
2022/11/25 02:44:37;;;;;;;;;;;9.20;81.10;;;;;;5029687;28;20004;-82
2022/11/25 02:47:02;;;;;;;;;;;9.10;81.30;;;;;;5021267;28;20040;-82
2022/11/25 02:49:28;;;;;;;;;;;9.20;81.40;;;;;;5028038;28;19916;-82
2022/11/25 02:51:53;;;;;;;;;;;9.30;81.00;;;;;;5036074;28;19923;-82
2022/11/25 02:54:19;;;;;;;;;;;9.20;81.00;;;;;;5032137;28;19913;-82
2022/11/25 02:56:44;;;;;;;;;;;9.30;81.20;;;;;;5030641;28;19970;-82
2022/11/25 02:59:10;;;;;;;;;;;9.20;81.60;;;;;;5025635;28;19917;-82
2022/11/25 03:01:37;;;;;;;;;;;9.20;81.60;;;;;;5027132;28;19913;-84
2022/11/25 03:04:02;;;;;;;;;;;9.20;81.50;;;;;;5030956;28;19928;-82
2022/11/25 03:06:28;;;;;;;;;;;9.20;81.50;;;;;;5024033;28;19917;-83
2022/11/25 03:08:54;;;;;;;;;;;9.20;81.70;;;;;;5029234;28;19917;-84
2022/11/25 03:11:19;;;;;;;;;;;9.20;81.60;;;;;;5047658;28;20166;-82
2022/11/25 03:13:45;;;;;;;;;;;9.30;81.30;;;;;;5026823;28;19959;-84
2022/11/25 03:16:10;;;;;;;;;;;9.40;81.20;;;;;;5023134;28;19914;-82
2022/11/25 03:18:36;;;;;;;;;;;9.40;81.40;;;;;;5030968;28;19940;-83
2022/11/25 03:21:01;;;;;;;;;;;9.30;81.50;;;;;;5033371;28;20460;-82
2022/11/25 03:23:27;;;;;;;;;;;9.30;81.90;;;;;;5051649;28;19923;-83
2022/11/25 03:25:53;;;;;;;;;;;9.40;82.00;;;;;;5027891;28;19913;-83
2022/11/25 03:28:18;;;;;;;;;;;9.30;81.50;;;;;;5032486;28;20023;-83
2022/11/25 03:30:44;;;;;;;;;;;9.40;82.00;;;;;;5027282;28;20373;-84
2022/11/25 03:33:10;;;;;;;;;;;9.40;82.00;;;;;;5047821;28;19921;-82
2022/11/25 03:35:35;;;;;;;;;;;9.50;81.90;;;;;;5025624;28;19948;-84
2022/11/25 03:38:01;;;;;;;;;;;9.50;81.50;;;;;;5025448;28;19918;-83
2022/11/25 03:40:26;;;;;;;;;;;9.50;81.60;;;;;;5021728;28;19963;-83
2022/11/25 03:42:51;;;;;;;;;;;9.60;81.50;;;;;;5027559;28;20385;-82
2022/11/25 03:45:17;;;;;;;;;;;9.50;81.60;;;;;;5040623;28;19936;-82
2022/11/25 03:47:43;;;;;;;;;;;9.50;81.50;;;;;;5038276;28;19948;-82
2022/11/25 03:50:10;;;;;;;;;;;9.50;82.00;;;;;;5028104;28;21766;-82
2022/11/25 03:52:35;;;;;;;;;;;9.50;82.20;;;;;;5062986;28;19913;-83
2022/11/25 03:55:01;;;;;;;;;;;9.60;82.20;;;;;;5070254;28;19923;-83
2022/11/25 03:57:27;;;;;;;;;;;9.50;82.40;;;;;;5036010;28;19917;-82
2022/11/25 03:59:52;;;;;;;;;;;9.60;82.50;;;;;;5025935;28;19971;-82
2022/11/25 04:02:18;;;;;;;;;;;9.50;82.00;;;;;;5037805;28;19932;-83
2022/11/25 04:04:43;;;;;;;;;;;9.60;81.90;;;;;;5027549;28;20380;-82
2022/11/25 04:07:09;;;;;;;;;;;9.60;82.00;;;;;;5019787;28;19984;-82
2022/11/25 04:09:34;;;;;;;;;;;9.50;82.00;;;;;;5057188;28;19920;-83
2022/11/25 04:14:44;;;;;;;;;;;9.50;82.50;;;;;;5025508;28;19924;-83
2022/11/25 04:17:09;;;;;;;;;;;9.40;82.60;;;;;;5020593;28;19913;-81
2022/11/25 04:19:35;;;;;;;;;;;9.50;82.50;;;;;;5029552;28;20442;-83
2022/11/25 04:22:01;;;;;;;;;;;9.40;82.50;;;;;;5021538;28;20289;-83
2022/11/25 04:24:27;;;;;;;;;;;9.40;82.60;;;;;;5023594;28;20435;-82
2022/11/25 04:26:53;;;;;;;;;;;9.50;82.20;;;;;;5020317;28;19921;-82
2022/11/25 04:29:19;;;;;;;;;;;9.50;82.50;;;;;;5037246;28;19921;-84
2022/11/25 04:31:45;;;;;;;;;;;9.60;82.10;;;;;;5030012;28;19913;-83
2022/11/25 04:34:10;;;;;;;;;;;9.60;82.10;;;;;;5041436;28;19910;-82
2022/11/25 04:36:36;;;;;;;;;;;9.70;81.90;;;;;;5018962;28;19917;-82
2022/11/25 04:39:01;;;;;;;;;;;9.80;81.90;;;;;;5060895;28;19925;-83
2022/11/25 04:41:27;;;;;;;;;;;9.80;82.00;;;;;;5025032;28;20290;-83
2022/11/25 04:43:52;;;;;;;;;;;9.80;82.20;;;;;;5026452;28;20277;-82
2022/11/25 04:46:20;;;;;;;;;;;9.70;82.80;;;;;;5045467;28;19921;-83
2022/11/25 04:48:45;;;;;;;;;;;9.60;83.20;;;;;;5049633;28;20318;-84
2022/11/25 04:51:11;;;;;;;;;;;9.60;83.80;;;;;;5022818;28;20202;-83
2022/11/25 04:53:36;;;;;;;;;;;9.60;84.30;;;;;;5022198;28;19993;-84
2022/11/25 04:56:02;;;;;;;;;;;9.60;85.00;;;;;;5028543;28;19916;-84
2022/11/25 05:01:11;;;;;;;;;;;9.40;86.10;;;;;;5021967;28;19932;-85
2022/11/25 05:03:37;;;;;;;;;;;9.30;86.90;;;;;;5027486;28;19913;-85
2022/11/25 05:06:09;;;;;;;;;;;9.30;87.00;;;;;;5026554;28;20213;-83
2022/11/25 05:08:35;;;;;;;;;;;9.30;87.00;;;;;;5065473;28;19914;-83
2022/11/25 05:11:00;;;;;;;;;;;9.20;87.30;;;;;;5057889;28;20015;-83
2022/11/25 05:13:26;;;;;;;;;;;9.30;87.60;;;;;;5026435;28;19991;-84
2022/11/25 05:15:51;;;;;;;;;;;9.30;87.30;;;;;;5023548;28;19967;-83
2022/11/25 05:18:17;;;;;;;;;;;9.30;87.10;;;;;;5037906;28;19925;-84
2022/11/25 05:20:43;;;;;;;;;;;9.30;87.50;;;;;;5027681;28;19917;-84
2022/11/25 05:23:08;;;;;;;;;;;9.20;87.50;;;;;;5028556;28;19953;-84
2022/11/25 05:25:34;;;;;;;;;;;9.30;87.20;;;;;;5024493;28;19920;-83
2022/11/25 05:27:59;;;;;;;;;;;9.20;87.00;;;;;;5030586;28;19917;-84
2022/11/25 05:30:25;;;;;;;;;;;9.10;87.20;;;;;;5012627;28;19917;-85
2022/11/25 05:32:50;;;;;;;;;;;9.20;87.20;;;;;;5053317;28;19970;-83
2022/11/25 05:35:16;;;;;;;;;;;9.10;86.90;;;;;;5048948;28;19909;-85
2022/11/25 05:37:42;;;;;;;;;;;9.10;87.10;;;;;;5015344;28;19926;-84
2022/11/25 05:40:08;;;;;;;;;;;9.10;86.70;;;;;;5053198;28;19920;-85
2022/11/25 05:42:33;;;;;;;;;;;9.10;87.00;;;;;;5061764;28;20009;-84
2022/11/25 05:45:00;;;;;;;;;;;9.20;86.90;;;;;;5037998;28;19913;-85
2022/11/25 05:47:26;;;;;;;;;;;9.20;87.20;;;;;;5026778;28;19909;-85
2022/11/25 05:49:52;;;;;;;;;;;9.10;87.30;;;;;;5020718;28;20092;-84
2022/11/25 05:52:19;;;;;;;;;;;9.10;87.40;;;;;;5029187;28;19921;-86
2022/11/25 05:54:45;;;;;;;;;;;9.10;87.30;;;;;;5060966;28;19967;-87
2022/11/25 05:57:10;;;;;;;;;;;9.20;87.20;;;;;;5019927;28;19917;-84
2022/11/25 05:59:36;;;;;;;;;;;9.10;87.40;;;;;;5029348;28;19924;-84
2022/11/25 06:02:01;;;;;;;;;;;9.10;87.60;;;;;;5025126;28;20381;-84
2022/11/25 06:04:27;;;;;;;;;;;9.10;87.90;;;;;;5023437;28;20024;-84
2022/11/25 06:06:52;;;;;;;;;;;9.10;87.80;;;;;;5027537;28;19917;-84
2022/11/25 06:09:18;;;;;;;;;;;9.10;87.80;;;;;;5029660;28;19919;-84
2022/11/25 06:11:43;;;;;;;;;;;9.10;87.30;;;;;;5055713;28;19932;-84
2022/11/25 06:14:09;;;;;;;;;;;9.10;87.50;;;;;;5025472;28;20296;-85
2022/11/25 06:16:34;;;;;;;;;;;9.00;87.60;;;;;;5027262;28;20010;-84
2022/11/25 06:19:00;;;;;;;;;;;9.00;88.00;;;;;;5030189;28;19982;-81
2022/11/25 06:21:26;;;;;;;;;;;9.00;87.80;;;;;;5030671;28;19925;-84
2022/11/25 06:23:52;;;;;;;;;;;9.00;88.00;;;;;;5031037;28;19924;-84
2022/11/25 06:26:19;;;;;;;;;;;9.00;88.10;;;;;;5022318;28;19913;-84
2022/11/25 06:28:45;;;;;;;;;;;9.00;87.90;;;;;;5015768;28;19962;-85
2022/11/25 06:31:12;;;;;;;;;;;9.00;88.20;;;;;;5025147;28;19957;-83
2022/11/25 06:33:38;;;;;;;;;;;9.00;88.50;;;;;;5041707;28;19992;-84
2022/11/25 06:36:04;;;;;;;;;;;9.00;88.60;;;;;;5040425;28;19971;-84
2022/11/25 06:38:30;;;;;;;;;;;9.00;88.80;;;;;;5038395;28;19960;-87
2022/11/25 06:40:59;;;;;;;;;;;9.00;88.80;;;;;;5041754;28;19917;-85
2022/11/25 06:43:25;;;;;;;;;;;9.00;88.60;;;;;;5028487;28;20048;-82
2022/11/25 06:45:50;;;;;;;;;;;8.90;88.70;;;;;;5025978;28;20036;-82
2022/11/25 06:48:15;;;;;;;;;;;8.90;88.80;;;;;;5063439;28;20324;-81
2022/11/25 06:50:41;;;;;;;;;;;8.90;89.00;;;;;;5028814;28;20527;-80
2022/11/25 06:53:06;;;;;;;;;;;8.90;88.90;;;;;;5024164;28;20292;-78
2022/11/25 06:55:32;;;;;;;;;;;8.90;89.40;;;;;;5030110;28;19912;-79
2022/11/25 06:57:57;;;;;;;;;;;8.90;89.00;;;;;;5019148;28;19956;-81
2022/11/25 07:00:23;;;;;;;;;;;9.00;89.60;;;;;;5020964;28;19921;-80
2022/11/25 07:02:48;;;;;;;;;;;9.00;89.70;;;;;;5025809;28;19920;-80
2022/11/25 07:05:14;;;;;;;;;;;9.00;89.60;;;;;;5015237;28;19917;-79
2022/11/25 07:07:39;;;;;;;;;;;9.00;89.50;;;;;;5017182;28;19929;-80
2022/11/25 07:10:05;;;;;;;;;;;9.00;89.30;;;;;;5022219;28;19953;-81
2022/11/25 07:12:30;;;;;;;;;;;8.90;89.40;;;;;;5052753;28;20083;-79
2022/11/25 07:14:59;;;;;;;;;;;8.90;89.40;;;;;;5013873;28;19952;-79
2022/11/25 07:17:24;;;;;;;;;;;9.00;89.20;;;;;;5027650;28;20471;-80
2022/11/25 07:19:49;;;;;;;;;;;8.90;89.00;;;;;;5025680;28;19917;-79
2022/11/25 07:22:15;;;;;;;;;;;9.00;89.00;;;;;;5041223;28;20307;-79
2022/11/25 07:24:40;;;;;;;;;;;9.00;88.90;;;;;;5025386;28;19952;-80
2022/11/25 07:27:07;;;;;;;;;;;9.00;88.90;;;;;;5021871;28;19921;-79
2022/11/25 07:29:34;;;;;;;;;;;9.00;88.80;;;;;;5016623;28;20008;-81
2022/11/25 07:31:59;;;;;;;;;;;9.00;88.90;;;;;;5026845;28;19944;-81
2022/11/25 07:34:25;;;;;;;;;;;8.90;88.90;;;;;;5041684;28;19925;-80
2022/11/25 07:36:50;;;;;;;;;;;8.80;89.00;;;;;;5032149;28;20392;-81
2022/11/25 07:39:17;;;;;;;;;;;8.80;89.30;;;;;;5031111;28;19963;-79
2022/11/25 07:41:42;;;;;;;;;;;8.80;89.10;;;;;;5032736;28;20033;-82
2022/11/25 07:44:10;;;;;;;;;;;8.80;89.10;;;;;;5039534;28;20360;-81
2022/11/25 07:46:36;;;;;;;;;;;8.80;89.20;;;;;;5036009;28;20112;-82
2022/11/25 07:49:03;;;;;;;;;;;8.80;89.10;;;;;;5032235;28;19922;-82
2022/11/25 07:51:30;;;;;;;;;;;8.80;89.10;;;;;;5034057;28;19923;-82
2022/11/25 07:53:56;;;;;;;;;;;8.80;89.20;;;;;;5039684;28;19917;-83
2022/11/25 07:56:22;;;;;;;;;;;8.90;89.30;;;;;;5022639;28;20332;-83
2022/11/25 07:58:48;;;;;;;;;;;9.00;89.20;;;;;;5030100;28;19917;-83
2022/11/25 08:01:14;;;;;;;;;;;9.00;89.10;;;;;;5023103;28;19917;-82
2022/11/25 08:03:40;;;;;;;;;;;8.90;89.00;;;;;;5026912;28;19951;-83
2022/11/25 08:06:07;;;;;;;;;;;8.90;89.20;;;;;;5028320;28;20304;-82
2022/11/25 08:08:33;;;;;;;;;;;8.90;89.00;;;;;;5038322;28;20382;-81
2022/11/25 08:10:58;;;;;;;;;;;9.00;89.30;;;;;;5028784;28;19921;-80
2022/11/25 08:13:24;;;;;;;;;;;8.90;89.00;;;;;;5021612;28;19920;-80
2022/11/25 08:15:50;;;;;;;;;;;8.90;89.30;;;;;;5030957;28;19932;-80
2022/11/25 08:18:16;;;;;;;;;;;9.00;89.20;;;;;;5035654;28;19989;-81
2022/11/25 08:20:41;;;;;;;;;;;9.00;89.20;;;;;;5031720;28;19920;-80
2022/11/25 08:23:07;;;;;;;;;;;8.90;89.20;;;;;;5025078;28;19917;-81
2022/11/25 08:25:32;;;;;;;;;;;9.00;89.50;;;;;;5029451;28;19921;-80
2022/11/25 08:27:58;;;;;;;;;;;9.10;89.50;;;;;;5022774;28;19928;-83
2022/11/25 08:30:24;;;;;;;;;;;9.10;89.00;;;;;;5030016;28;19939;-83
2022/11/25 08:32:50;;;;;;;;;;;9.10;89.30;;;;;;5020573;28;19913;-84
2022/11/25 08:35:16;;;;;;;;;;;9.10;89.20;;;;;;5029320;28;19913;-83
2022/11/25 08:37:41;;;;;;;;;;;9.10;89.20;;;;;;5041080;28;19948;-83
2022/11/25 08:40:07;;;;;;;;;;;9.00;89.20;;;;;;5033243;28;19913;-83
2022/11/25 08:42:32;;;;;;;;;;;9.10;89.10;;;;;;5035270;28;20012;-83
2022/11/25 08:44:58;;;;;;;;;;;9.20;89.10;;;;;;5031610;28;20249;-83
2022/11/25 08:47:24;;;;;;;;;;;9.20;88.90;;;;;;5034306;28;19910;-84
2022/11/25 08:49:50;;;;;;;;;;;9.20;89.00;;;;;;5030233;28;19917;-84
2022/11/25 08:52:16;;;;;;;;;;;9.30;89.10;;;;;;5036683;28;19909;-84
2022/11/25 08:54:41;;;;;;;;;;;9.30;89.10;;;;;;5038167;28;19971;-82
2022/11/25 08:57:07;;;;;;;;;;;9.40;89.10;;;;;;5031798;28;20389;-81
2022/11/25 08:59:32;;;;;;;;;;;9.30;89.00;;;;;;5032554;28;20027;-81
2022/11/25 09:02:00;;;;;;;;;;;9.40;88.70;;;;;;5056960;28;20282;-82
2022/11/25 09:04:25;;;;;;;;;;;9.30;88.70;;;;;;5031552;28;20400;-81
2022/11/25 09:06:50;;;;;;;;;;;9.20;88.90;;;;;;5036643;28;19920;-82
2022/11/25 09:09:16;;;;;;;;;;;9.10;89.00;;;;;;5050610;28;19948;-81
2022/11/25 09:11:41;;;;;;;;;;;9.10;89.20;;;;;;5031483;28;19924;-82
2022/11/25 09:14:07;;;;;;;;;;;9.10;89.40;;;;;;5038754;28;19917;-81
2022/11/25 09:16:32;;;;;;;;;;;9.10;89.20;;;;;;5029033;28;19920;-81
2022/11/25 09:18:58;;;;;;;;;;;9.20;89.30;;;;;;5033933;28;19913;-81
2022/11/25 09:21:24;;;;;;;;;;;9.30;89.30;;;;;;5026874;28;19939;-81
2022/11/25 09:23:50;;;;;;;;;;;9.30;89.30;;;;;;5028714;28;20618;-82
2022/11/25 09:26:18;;;;;;;;;;;9.40;89.40;;;;;;5039976;28;19921;-82
2022/11/25 09:28:44;;;;;;;;;;;9.50;89.20;;;;;;5035086;28;19915;-81
2022/11/25 09:31:09;;;;;;;;;;;9.50;88.90;;;;;;5032868;28;20416;-82
2022/11/25 09:33:35;;;;;;;;;;;9.50;88.60;;;;;;5028394;28;19913;-81
2022/11/25 09:36:01;;;;;;;;;;;9.60;88.80;;;;;;5033989;28;20015;-82
2022/11/25 09:38:27;;;;;;;;;;;9.50;88.60;;;;;;5029373;28;20104;-81
2022/11/25 09:40:52;;;;;;;;;;;9.50;88.40;;;;;;5042843;28;19967;-81
2022/11/25 09:49:02;;;;;;;;;;;9.60;88.20;;;;;;5029603;28;19956;-80
2022/11/25 09:51:27;;;;;;;;;;;9.60;88.10;;;;;;5021530;28;20292;-81
2022/11/25 09:53:55;;;;;;;;;;;9.70;88.00;;;;;;5028114;28;20024;-82
2022/11/25 09:56:26;;;;;;;;;;;9.70;87.60;;;;;;5026107;28;19920;-82
2022/11/25 09:59:24;;;;;;;;;;;9.70;87.80;;;;;;5030659;28;19935;-82
2022/11/25 10:01:53;;;;;;;;;;;9.80;87.60;;;;;;5003273;28;19959;-83
2022/11/25 10:04:30;;;;;;;;;;;9.90;87.10;;;;;;5029009;28;19914;-82
2022/11/25 10:06:59;;;;;;;;;;;10.00;87.10;;;;;;5033808;28;19913;-82
2022/11/25 10:09:27;;;;;;;;;;;10.00;87.00;;;;;;5032004;28;19921;-81
2022/11/25 10:11:59;;;;;;;;;;;10.00;86.60;;;;;;5031869;28;20126;-82
2022/11/25 10:14:33;;;;;;;;;;;10.10;86.10;;;;;;5034930;28;20340;-82
2022/11/25 10:17:11;;;;;;;;;;;10.30;85.80;;;;;;5055448;28;19913;-81
2022/11/25 10:20:05;;;;;;;;;;;10.40;85.20;;;;;;5032266;28;19917;-80
2022/11/25 10:22:36;;;;;;;;;;;10.40;84.60;;;;;;5011557;28;19921;-82
2022/11/25 10:25:13;;;;;;;;;;;10.50;84.80;;;;;;5033257;28;20270;-82
2022/11/25 10:27:43;;;;;;;;;;;10.40;84.10;;;;;;5030781;28;19970;-81
2022/11/25 10:30:19;;;;;;;;;;;10.40;84.10;;;;;;5032221;28;19913;-85
2022/11/25 10:32:51;;;;;;;;;;;10.40;83.90;;;;;;5029660;28;19914;-84
2022/11/25 10:35:28;;;;;;;;;;;10.40;84.10;;;;;;5035973;28;20289;-85
2022/11/25 10:37:55;;;;;;;;;;;10.30;84.30;;;;;;5033199;28;19924;-84
2022/11/25 10:40:20;;;;;;;;;;;10.30;84.30;;;;;;5032788;28;19913;-84
2022/11/25 10:42:46;;;;;;;;;;;10.30;84.40;;;;;;5037287;28;19913;-83
2022/11/25 10:45:14;;;;;;;;;;;10.30;84.40;;;;;;5043788;28;19917;-84
2022/11/25 10:47:58;;;;;;;;;;;10.20;84.20;;;;;;5040377;28;19939;-84
2022/11/25 10:50:39;;;;;;;;;;;10.30;84.10;;;;;;5032060;28;19913;-84
2022/11/25 10:53:07;;;;;;;;;;;10.30;83.60;;;;;;5044789;28;20060;-83
2022/11/25 10:55:33;;;;;;;;;;;10.40;83.30;;;;;;5039577;28;19944;-83
2022/11/25 10:58:18;;;;;;;;;;;10.50;83.40;;;;;;5054782;22;19929;-85
2022/11/25 11:00:43;;;;;;;;;;;10.50;82.80;;;;;;5073269;28;20463;-85
2022/11/25 11:03:16;;;;;;;;;;;10.50;82.80;;;;;;5055881;28;19917;-85
2022/11/25 11:05:44;;;;;;;;;;;10.40;83.30;;;;;;5070212;28;19923;-85
2022/11/25 11:08:16;;;;;;;;;;;10.40;83.20;;;;;;5070831;28;19951;-86
2022/11/25 11:11:14;;;;;;;;;;;10.30;83.20;;;;;;5056251;28;19919;-88
2022/11/25 11:14:02;;;;;;;;;;;10.30;83.70;;;;;;5052322;28;20436;-88
2022/11/25 11:16:51;;;;;;;;;;;10.30;83.50;;;;;;5062874;28;19916;-88
2022/11/25 11:19:24;;;;;;;;;;;10.30;83.90;;;;;;5058379;28;20114;-88
2022/11/25 11:22:09;;;;;;;;;;;10.50;83.80;;;;;;5072129;28;19908;-85
2022/11/25 11:24:36;;;;;;;;;;;10.50;83.00;;;;;;5057321;28;19916;-85
2022/11/25 11:27:03;;;;;;;;;;;10.50;83.20;;;;;;5071657;28;19966;-83
2022/11/25 11:29:32;;;;;;;;;;;10.50;83.30;;;;;;5072554;28;20358;-84
2022/11/25 11:32:06;;;;;;;;;;;10.50;83.70;;;;;;5055947;28;20412;-85
2022/11/25 11:34:44;;;;;;;;;;;10.50;83.20;;;;;;5058444;28;19920;-84
2022/11/25 11:37:10;;;;;;;;;;;10.50;83.30;;;;;;5076687;28;19962;-84
2022/11/25 11:39:38;;;;;;;;;;;10.70;83.20;;;;;;5076502;28;19924;-84
2022/11/25 11:42:20;;;;;;;;;;;10.70;82.50;;;;;;5050673;28;19966;-83
2022/11/25 11:45:03;;;;;;;;;;;10.80;81.90;;;;;;5057320;28;19909;-84
2022/11/25 11:47:35;;;;;;;;;;;10.70;82.00;;;;;;5077330;28;19927;-83
2022/11/25 11:50:20;;;;;;;;;;;10.80;82.50;;;;;;5078995;28;19916;-84
2022/11/25 11:53:07;;;;;;;;;;;10.80;82.20;;;;;;5073122;28;19912;-83
2022/11/25 11:55:48;;;;;;;;;;;11.00;81.90;;;;;;5066054;28;19912;-83
2022/11/25 11:58:39;;;;;;;;;;;11.00;81.90;;;;;;5084142;28;19943;-83
2022/11/25 12:01:11;;;;;;;;;;;11.00;81.90;;;;;;5053341;28;19993;-84
2022/11/25 12:03:39;;;;;;;;;;;11.00;81.80;;;;;;5062528;28;19913;-83
2022/11/25 12:06:05;;;;;;;;;;;10.90;82.10;;;;;;5062986;28;19946;-83
2022/11/25 12:08:33;;;;;;;;;;;10.80;82.40;;;;;;5054384;28;19912;-84
2022/11/25 12:11:02;;;;;;;;;;;10.80;82.40;;;;;;5081923;28;20005;-84
2022/11/25 12:13:40;;;;;;;;;;;10.70;82.60;;;;;;5061656;28;19934;-84
2022/11/25 12:16:24;;;;;;;;;;;10.80;82.50;;;;;;5071994;28;19943;-84
2022/11/25 12:19:13;;;;;;;;;;;10.80;82.00;;;;;;5057079;28;19987;-84
2022/11/25 12:21:39;;;;;;;;;;;10.90;81.80;;;;;;5078370;28;20464;-84
2022/11/25 12:24:20;;;;;;;;;;;10.90;81.90;;;;;;5062480;28;20012;-84
2022/11/25 12:26:53;;;;;;;;;;;10.90;81.80;;;;;;5060122;28;19912;-84
2022/11/25 12:29:24;;;;;;;;;;;10.90;81.50;;;;;;5060517;28;19916;-84
2022/11/25 12:31:55;;;;;;;;;;;10.90;81.30;;;;;;5062541;28;19919;-83
2022/11/25 12:34:29;;;;;;;;;;;10.90;81.10;;;;;;5090509;28;19923;-84
2022/11/25 12:37:01;;;;;;;;;;;10.80;81.50;;;;;;5070633;28;19975;-84
2022/11/25 12:39:26;;;;;;;;;;;10.90;81.20;;;;;;5086743;28;19923;-84
2022/11/25 12:41:53;;;;;;;;;;;10.90;81.30;;;;;;5069338;28;19936;-83
2022/11/25 12:44:40;;;;;;;;;;;10.90;81.50;;;;;;5065974;28;19913;-84
2022/11/25 12:47:09;;;;;;;;;;;10.80;81.70;;;;;;5052608;28;20319;-83
2022/11/25 12:49:39;;;;;;;;;;;10.80;82.20;;;;;;5070716;28;19939;-84
2022/11/25 12:52:11;;;;;;;;;;;10.80;82.10;;;;;;5053099;28;19920;-85
2022/11/25 12:54:42;;;;;;;;;;;10.80;82.20;;;;;;5069726;28;19935;-85
2022/11/25 12:57:23;;;;;;;;;;;10.80;82.20;;;;;;5052422;28;19999;-84
2022/11/25 13:00:08;;;;;;;;;;;10.80;82.20;;;;;;5040277;28;19970;-83
2022/11/25 13:02:52;;;;;;;;;;;10.80;82.30;;;;;;5080166;28;19927;-88
2022/11/25 13:05:40;;;;;;;;;;;10.80;82.70;;;;;;5054068;28;19943;-90
2022/11/25 13:08:16;;;;;;;;;;;10.90;82.20;;;;;;5065724;28;19960;-86
2022/11/25 13:10:44;;;;;;;;;;;10.90;82.30;;;;;;5044888;28;19912;-86
2022/11/25 13:13:10;;;;;;;;;;;11.00;81.90;;;;;;5067569;28;19928;-86
2022/11/25 13:15:36;;;;;;;;;;;11.00;81.50;;;;;;5057062;28;20386;-84
2022/11/25 13:18:07;;;;;;;;;;;11.00;81.40;;;;;;5083032;28;19916;-84
2022/11/25 13:20:35;;;;;;;;;;;11.00;81.40;;;;;;5079744;28;20075;-84
2022/11/25 13:23:03;;;;;;;;;;;11.10;81.30;;;;;;5057937;28;19917;-82
2022/11/25 13:25:32;;;;;;;;;;;11.10;81.20;;;;;;5057872;28;19920;-85
2022/11/25 13:27:58;;;;;;;;;;;11.00;81.10;;;;;;5048460;28;19970;-85
2022/11/25 13:30:33;;;;;;;;;;;11.00;81.40;;;;;;5081529;28;19944;-86
2022/11/25 13:33:10;;;;;;;;;;;11.00;81.40;;;;;;5051517;28;19951;-84
2022/11/25 13:35:42;;;;;;;;;;;11.00;81.40;;;;;;5060658;28;19912;-85
2022/11/25 13:38:27;;;;;;;;;;;11.10;81.50;;;;;;5080006;28;19916;-86
2022/11/25 13:41:13;;;;;;;;;;;11.10;81.10;;;;;;5063105;28;19916;-85
2022/11/25 13:43:59;;;;;;;;;;;11.20;80.60;;;;;;5073664;28;19920;-86
2022/11/25 13:46:33;;;;;;;;;;;11.30;80.70;;;;;;5057494;28;19913;-86
2022/11/25 13:48:58;;;;;;;;;;;11.20;80.80;;;;;;5062949;28;19916;-86
2022/11/25 13:51:25;;;;;;;;;;;11.30;80.20;;;;;;5056563;28;20001;-86
2022/11/25 13:53:59;;;;;;;;;;;11.40;79.50;;;;;;5074425;28;19913;-86
2022/11/25 13:56:27;;;;;;;;;;;11.40;80.00;;;;;;5056911;28;20339;-85
2022/11/25 13:59:12;;;;;;;;;;;11.50;80.10;;;;;;5066046;28;19916;-85
2022/11/25 14:01:39;;;;;;;;;;;11.50;80.10;;;;;;5062779;28;19912;-84
2022/11/25 14:04:09;;;;;;;;;;;11.50;80.00;;;;;;5062104;28;19916;-85
2022/11/25 14:06:40;;;;;;;;;;;11.60;79.70;;;;;;5073611;28;19919;-85
2022/11/25 14:09:32;;;;;;;;;;;11.50;79.80;;;;;;5078827;28;19916;-85
2022/11/25 14:11:57;;;;;;;;;;;11.50;79.80;;;;;;5032073;28;19984;-84
2022/11/25 14:14:34;;;;;;;;;;;11.40;80.20;;;;;;5054791;28;19935;-85
2022/11/25 14:17:23;;;;;;;;;;;11.40;80.00;;;;;;5058586;28;19913;-85
2022/11/25 14:20:08;;;;;;;;;;;11.40;80.00;;;;;;5050358;28;20003;-86
2022/11/25 14:22:46;;;;;;;;;;;11.50;79.70;;;;;;5073572;28;19920;-90
2022/11/25 14:25:12;;;;;;;;;;;11.40;79.80;;;;;;5054852;28;19965;-80
2022/11/25 14:27:37;;;;;;;;;;;11.40;80.00;;;;;;5070484;28;19912;-83
2022/11/25 14:30:07;;;;;;;;;;;11.40;80.50;;;;;;5073794;28;19916;-82
2022/11/25 14:33:08;;;;;;;;;;;11.50;80.00;;;;;;5058278;28;20408;-83
2022/11/25 14:35:34;;;;;;;;;;;11.60;79.80;;;;;;5018837;28;19929;-86
2022/11/25 14:38:04;;;;;;;;;;;11.60;79.50;;;;;;5027588;28;19927;-85
2022/11/25 14:40:48;;;;;;;;;;;11.50;80.00;;;;;;5034030;28;19937;-85
2022/11/25 14:43:15;;;;;;;;;;;11.60;79.60;;;;;;5040845;28;19904;-84
2022/11/25 14:45:41;;;;;;;;;;;11.50;79.60;;;;;;5073758;28;19943;-83
2022/11/25 14:48:14;;;;;;;;;;;11.40;80.10;;;;;;5081746;28;20443;-84
2022/11/25 14:50:51;;;;;;;;;;;11.30;80.40;;;;;;5060894;28;19912;-83